Time;durP1;ratioP1;P1;durP2;ratioP2;P2;SDS_P1;SDS_P2;PMS_P1;PMS_P2;Temp;Humidity;BMP_temperature;BMP_pressure;BME280_temperature;BME280_humidity;BME280_pressure;Samples;Min_cycle;Max_cycle;Signal;HPM_P1;HPM_P2
2023/03/08 00:00:15;;;;;;;6.53;2.97;;;4.50;99.90;;;;;;5031620;28;20279;-82
2023/03/08 00:02:41;;;;;;;6.83;4.53;;;4.50;99.90;;;;;;5032706;28;20718;-83
2023/03/08 00:05:08;;;;;;;6.43;2.90;;;4.50;99.90;;;;;;5015162;28;20271;-82
2023/03/08 00:07:33;;;;;;;4.73;3.40;;;4.50;99.90;;;;;;5032601;28;20181;-83
2023/03/08 00:09:59;;;;;;;3.43;3.03;;;4.50;99.90;;;;;;5032832;28;20255;-83
2023/03/08 00:12:25;;;;;;;6.23;3.37;;;4.50;99.90;;;;;;5032171;28;20644;-83
2023/03/08 00:14:51;;;;;;;10.27;3.97;;;4.50;99.90;;;;;;5035631;28;20702;-81
2023/03/08 00:17:17;;;;;;;5.53;3.27;;;4.50;99.90;;;;;;5036412;28;20240;-83
2023/03/08 00:19:44;;;;;;;5.73;3.53;;;4.50;99.90;;;;;;5036623;28;20184;-82
2023/03/08 00:22:10;;;;;;;12.17;4.07;;;4.50;99.90;;;;;;5038200;28;20576;-82
2023/03/08 00:24:37;;;;;;;11.30;3.83;;;;;;;;;;5038184;28;20310;-82
2023/03/08 00:27:03;;;;;;;7.40;4.23;;;4.40;99.90;;;;;;5037320;28;20259;-83
2023/03/08 00:29:29;;;;;;;5.00;3.10;;;4.40;99.90;;;;;;5036515;28;20196;-82
2023/03/08 00:31:55;;;;;;;7.87;3.43;;;4.40;99.90;;;;;;5036432;28;20206;-82
2023/03/08 00:34:21;;;;;;;6.90;3.53;;;4.40;99.90;;;;;;5034987;28;20267;-85
2023/03/08 00:36:47;;;;;;;7.43;3.30;;;4.40;99.90;;;;;;5036630;28;20634;-83
2023/03/08 00:39:13;;;;;;;4.87;3.17;;;4.40;99.90;;;;;;5036670;28;20554;-81
2023/03/08 00:41:39;;;;;;;9.00;4.30;;;4.40;99.90;;;;;;5034871;28;20189;-82
2023/03/08 00:44:05;;;;;;;6.10;4.20;;;4.30;99.90;;;;;;5036510;28;20188;-81
2023/03/08 00:46:31;;;;;;;6.87;3.47;;;4.20;99.90;;;;;;5036129;28;20214;-82
2023/03/08 00:48:58;;;;;;;6.80;3.30;;;4.20;99.90;;;;;;5018498;28;20239;-81
2023/03/08 00:51:25;;;;;;;7.67;3.33;;;4.20;99.90;;;;;;5018757;28;20187;-82
2023/03/08 00:53:50;;;;;;;8.47;3.93;;;4.00;99.90;;;;;;5035091;28;20649;-82
2023/03/08 00:56:16;;;;;;;6.73;4.17;;;3.90;99.90;;;;;;5036128;28;20211;-81
2023/03/08 00:58:42;;;;;;;3.90;2.40;;;3.90;99.90;;;;;;5034646;28;20180;-81
2023/03/08 01:01:14;;;;;;;8.53;4.13;;;3.90;99.90;;;;;;5034660;28;20193;-80
2023/03/08 01:03:40;;;;;;;5.20;2.60;;;3.90;99.90;;;;;;5034755;28;20211;-81
2023/03/08 01:06:09;;;;;;;9.40;4.13;;;4.00;99.90;;;;;;5034879;28;20223;-81
2023/03/08 01:08:35;;;;;;;9.47;4.63;;;4.00;99.90;;;;;;5035679;28;20184;-81
2023/03/08 01:11:01;;;;;;;16.70;4.20;;;4.00;99.90;;;;;;5035836;28;20219;-81
2023/03/08 01:13:32;;;;;;;7.00;4.47;;;3.90;99.90;;;;;;5049165;28;20231;-82
2023/03/08 01:15:59;;;;;;;8.37;4.37;;;3.80;99.90;;;;;;5055737;28;20209;-81
2023/03/08 01:18:25;;;;;;;5.03;3.47;;;3.80;99.90;;;;;;5055925;28;20246;-81
2023/03/08 01:21:02;;;;;;;7.37;4.13;;;3.80;99.90;;;;;;5037645;28;20670;-81
2023/03/08 01:23:28;;;;;;;8.17;3.77;;;3.70;99.90;;;;;;5037436;28;20179;-82
2023/03/08 01:25:58;;;;;;;10.90;3.80;;;3.70;99.90;;;;;;5038263;28;20183;-81
2023/03/08 01:28:24;;;;;;;7.43;4.13;;;3.70;99.90;;;;;;5054963;28;20201;-81
2023/03/08 01:30:50;;;;;;;6.60;4.43;;;3.70;99.90;;;;;;5055413;28;20180;-81
2023/03/08 01:33:15;;;;;;;6.27;3.40;;;3.70;99.90;;;;;;5055883;28;20287;-81
2023/03/08 01:35:41;;;;;;;8.93;3.73;;;3.70;99.90;;;;;;5037813;28;20212;-81
2023/03/08 01:38:07;;;;;;;9.37;5.30;;;3.70;99.90;;;;;;5037436;28;20685;-81
2023/03/08 01:40:32;;;;;;;7.13;4.07;;;3.60;99.90;;;;;;5037485;28;20644;-81
2023/03/08 01:42:58;;;;;;;10.80;5.63;;;3.70;99.90;;;;;;5055334;28;20233;-81
2023/03/08 01:46:01;;;;;;;9.33;4.83;;;3.60;99.90;;;;;;5055415;28;20636;-81
2023/03/08 01:48:32;;;;;;;9.30;4.03;;;3.60;99.90;;;;;;5055466;28;20179;-81
2023/03/08 01:51:01;;;;;;;7.37;4.17;;;3.60;99.90;;;;;;5055168;28;20191;-82
2023/03/08 01:53:27;;;;;;;10.87;4.70;;;3.60;99.90;;;;;;5054930;28;20176;-81
2023/03/08 01:55:53;;;;;;;6.83;4.57;;;3.60;99.90;;;;;;5020464;28;20180;-81
2023/03/08 01:58:20;;;;;;;9.33;4.70;;;3.60;99.90;;;;;;5037179;28;20211;-80
2023/03/08 02:00:46;;;;;;;8.13;4.20;;;3.50;99.90;;;;;;5055094;28;20645;-81
2023/03/08 02:03:11;;;;;;;9.03;4.20;;;3.50;99.90;;;;;;5037259;28;20191;-81
2023/03/08 02:05:40;;;;;;;7.47;5.23;;;3.50;99.90;;;;;;5054663;28;20183;-82
2023/03/08 02:08:06;;;;;;;11.00;5.23;;;3.50;99.90;;;;;;5054712;28;20648;-81
2023/03/08 02:10:33;;;;;;;6.23;4.03;;;3.50;99.90;;;;;;5055266;28;20186;-82
2023/03/08 02:12:59;;;;;;;6.63;4.70;;;3.50;99.90;;;;;;5020364;28;20232;-81
2023/03/08 02:15:24;;;;;;;6.00;3.87;;;3.60;99.90;;;;;;5037085;28;20184;-82
2023/03/08 02:17:50;;;;;;;11.17;4.70;;;3.60;99.90;;;;;;5054245;28;20211;-82
2023/03/08 02:20:30;;;;;;;9.63;5.20;;;3.60;99.90;;;;;;5054561;28;20184;-81
2023/03/08 02:23:07;;;;;;;3.87;3.17;;;3.60;99.90;;;;;;5054526;28;20181;-81
2023/03/08 02:25:33;;;;;;;8.33;4.97;;;3.60;99.90;;;;;;5054579;28;20172;-81
2023/03/08 02:27:59;;;;;;;7.97;4.30;;;3.60;99.90;;;;;;5054260;28;20195;-81
2023/03/08 02:30:29;;;;;;;9.63;4.50;;;3.60;99.90;;;;;;5036644;28;20679;-81
2023/03/08 02:32:54;;;;;;;8.40;3.93;;;3.60;99.90;;;;;;5036164;28;20187;-81
2023/03/08 02:35:21;;;;;;;8.87;3.80;;;3.60;99.90;;;;;;5035852;28;20743;-82
2023/03/08 02:37:46;;;;;;;8.90;4.20;;;3.60;99.90;;;;;;5036288;28;20307;-82
2023/03/08 02:40:12;;;;;;;6.63;4.23;;;3.60;99.90;;;;;;5036388;28;20241;-81
2023/03/08 02:42:38;;;;;;;19.13;5.77;;;3.60;99.90;;;;;;5053874;28;20770;-83
2023/03/08 02:45:04;;;;;;;3.57;2.87;;;3.60;99.90;;;;;;5054067;28;20208;-81
2023/03/08 02:47:30;;;;;;;14.93;4.77;;;3.70;99.90;;;;;;5036446;28;20577;-81
2023/03/08 02:49:56;;;;;;;5.83;3.70;;;3.70;99.90;;;;;;5053656;28;20190;-81
2023/03/08 02:52:21;;;;;;;10.33;4.37;;;3.70;99.90;;;;;;5003334;28;20194;-81
2023/03/08 02:54:47;;;;;;;4.90;2.97;;;3.60;99.90;;;;;;5036075;28;20176;-82
2023/03/08 02:57:13;;;;;;;11.03;5.53;;;3.60;99.90;;;;;;5035681;28;20616;-81
2023/03/08 02:59:38;;;;;;;4.23;3.07;;;3.60;99.90;;;;;;5053745;28;20180;-81
2023/03/08 03:02:04;;;;;;;8.47;5.63;;;3.60;99.90;;;;;;5002829;28;20641;-81
2023/03/08 03:04:32;;;;;;;13.50;6.17;;;3.60;99.90;;;;;;5035662;28;20652;-81
2023/03/08 03:06:58;;;;;;;3.90;3.47;;;3.60;99.90;;;;;;5053460;28;20180;-81
2023/03/08 03:09:24;;;;;;;8.77;4.17;;;3.60;99.90;;;;;;5035625;28;20195;-81
2023/03/08 03:11:50;;;;;;;7.90;4.60;;;3.60;99.90;;;;;;5053043;28;20535;-81
2023/03/08 03:14:16;;;;;;;16.10;6.43;;;3.60;99.90;;;;;;5019125;28;20214;-82
2023/03/08 03:16:41;;;;;;;8.23;4.47;;;3.60;99.90;;;;;;5053054;28;20745;-84
2023/03/08 03:19:07;;;;;;;18.80;7.03;;;3.60;99.90;;;;;;5019287;28;20183;-81
2023/03/08 03:21:33;;;;;;;6.90;4.63;;;3.70;99.90;;;;;;5054064;28;20187;-81
2023/03/08 03:23:59;;;;;;;4.60;3.77;;;3.60;99.90;;;;;;5035521;28;20183;-81
2023/03/08 03:26:25;;;;;;;11.90;6.87;;;3.60;99.90;;;;;;5035645;28;20183;-81
2023/03/08 03:28:51;;;;;;;11.77;4.57;;;3.60;99.90;;;;;;5035423;28;20257;-81
2023/03/08 03:31:19;;;;;;;14.27;5.97;;;3.60;99.90;;;;;;5035533;28;20631;-82
2023/03/08 03:33:46;;;;;;;8.07;5.03;;;3.60;99.90;;;;;;5035256;28;20221;-82
2023/03/08 03:36:15;;;;;;;7.47;4.07;;;3.60;99.90;;;;;;5035259;28;20581;-80
2023/03/08 03:38:41;;;;;;;10.73;4.80;;;3.70;99.90;;;;;;5053176;28;20179;-81
2023/03/08 03:41:12;;;;;;;10.33;5.00;;;3.70;99.90;;;;;;5052698;28;20168;-81
2023/03/08 03:43:38;;;;;;;8.17;4.47;;;3.60;99.90;;;;;;5053215;28;20183;-81
2023/03/08 03:46:10;;;;;;;16.03;5.57;;;3.70;99.90;;;;;;5035105;28;20179;-81
2023/03/08 03:48:36;;;;;;;12.87;5.50;;;3.80;99.90;;;;;;5052607;28;20623;-81
2023/03/08 03:51:08;;;;;;;12.13;5.07;;;3.80;99.90;;;;;;5018523;28;20206;-81
2023/03/08 03:53:34;;;;;;;9.70;4.93;;;3.80;99.90;;;;;;5053112;28;20208;-81
2023/03/08 03:56:18;;;;;;;9.87;4.80;;;3.80;99.90;;;;;;5052612;28;20180;-81
2023/03/08 03:58:44;;;;;;;12.43;6.20;;;3.80;99.90;;;;;;5053459;28;20179;-81
2023/03/08 04:01:15;;;;;;;11.63;6.27;;;3.80;99.90;;;;;;5034898;28;20176;-82
2023/03/08 04:03:41;;;;;;;13.43;5.67;;;3.90;99.90;;;;;;5053046;28;20175;-82
2023/03/08 04:06:17;;;;;;;5.30;4.00;;;3.90;99.90;;;;;;5035075;28;20180;-81
2023/03/08 04:08:43;;;;;;;9.10;4.67;;;3.80;99.90;;;;;;5052947;28;20214;-81
2023/03/08 04:11:14;;;;;;;18.07;6.57;;;3.90;99.90;;;;;;5052659;28;20184;-82
2023/03/08 04:13:40;;;;;;;10.00;4.20;;;3.80;99.90;;;;;;5052835;28;20233;-81
2023/03/08 04:16:21;;;;;;;8.13;5.73;;;3.80;99.90;;;;;;5018801;28;20184;-82
2023/03/08 04:18:51;;;;;;;11.30;5.47;;;3.80;99.90;;;;;;5052739;28;20184;-81
2023/03/08 04:21:16;;;;;;;12.83;5.53;;;3.70;99.90;;;;;;5052492;28;20583;-81
2023/03/08 04:23:42;;;;;;;16.60;7.27;;;3.70;99.90;;;;;;5052578;28;20172;-81
2023/03/08 04:26:08;;;;;;;8.80;4.93;;;3.70;99.90;;;;;;5052017;28;20180;-81
2023/03/08 04:28:34;;;;;;;13.83;5.53;;;3.70;99.90;;;;;;5018006;28;20176;-82
2023/03/08 04:31:10;;;;;;;9.97;4.67;;;3.70;99.90;;;;;;5034027;28;20514;-81
2023/03/08 04:33:36;;;;;;;12.70;5.07;;;3.70;99.90;;;;;;5035977;28;20176;-81
2023/03/08 04:36:01;;;;;;;12.00;5.73;;;3.70;99.90;;;;;;5051673;28;20179;-81
2023/03/08 04:38:27;;;;;;;8.77;5.00;;;3.80;99.90;;;;;;5051910;28;20251;-81
2023/03/08 04:41:04;;;;;;;8.47;4.70;;;3.90;99.90;;;;;;5033973;28;20184;-84
2023/03/08 04:43:31;;;;;;;10.20;4.80;;;3.90;99.90;;;;;;5018918;28;20172;-81
2023/03/08 04:45:57;;;;;;;9.07;3.33;;;3.90;99.90;;;;;;5033667;28;20190;-83
2023/03/08 04:48:23;;;;;;;9.40;5.50;;;3.80;99.90;;;;;;5033929;28;20180;-81
2023/03/08 04:50:58;;;;;;;13.00;4.87;;;3.80;99.90;;;;;;5016632;28;20184;-82
2023/03/08 04:53:24;;;;;;;11.23;4.07;;;3.90;99.90;;;;;;5047632;28;20184;-83
2023/03/08 04:55:51;;;;;;;15.83;7.40;;;3.80;99.90;;;;;;5039621;28;20173;-82
2023/03/08 04:58:18;;;;;;;9.87;5.23;;;3.80;99.90;;;;;;4998093;28;20219;-81
2023/03/08 05:00:44;;;;;;;10.60;4.57;;;3.80;99.90;;;;;;5017442;28;20180;-82
2023/03/08 05:03:10;;;;;;;9.97;6.20;;;3.70;99.90;;;;;;5000027;28;20193;-81
2023/03/08 05:05:36;;;;;;;20.47;10.03;;;3.80;99.90;;;;;;5017205;28;20187;-81
2023/03/08 05:08:04;;;;;;;16.03;7.60;;;3.80;99.90;;;;;;5035208;28;20188;-80
2023/03/08 05:10:32;;;;;;;10.63;6.23;;;3.60;99.90;;;;;;5025232;28;20180;-80
2023/03/08 05:12:58;;;;;;;13.30;5.40;;;3.40;99.90;;;;;;5037212;28;20227;-82
2023/03/08 05:15:24;;;;;;;11.10;7.30;;;3.20;99.90;;;;;;5001020;28;20196;-80
2023/03/08 05:17:50;;;;;;;8.90;4.60;;;3.00;99.90;;;;;;5016953;28;20563;-80
2023/03/08 05:20:16;;;;;;;11.50;6.03;;;2.70;99.90;;;;;;5034729;28;20185;-80
2023/03/08 05:22:42;;;;;;;6.10;3.00;;;2.40;99.90;;;;;;5034791;28;20214;-81
2023/03/08 05:25:09;;;;;;;8.70;4.27;;;2.30;99.90;;;;;;5034631;28;20611;-80
2023/03/08 05:27:35;;;;;;;4.90;3.00;;;2.30;99.90;;;;;;5034723;28;20209;-80
2023/03/08 05:30:02;;;;;;;10.17;3.93;;;2.20;99.90;;;;;;5035144;28;20219;-81
2023/03/08 05:32:28;;;;;;;13.37;5.00;;;2.10;99.90;;;;;;5028866;28;20581;-80
2023/03/08 05:34:54;;;;;;;8.10;3.00;;;2.00;99.90;;;;;;5037116;28;20186;-83
2023/03/08 05:37:20;;;;;;;10.37;3.63;;;2.00;99.90;;;;;;5054877;28;20218;-80
2023/03/08 05:39:47;;;;;;;5.70;3.30;;;1.90;99.90;;;;;;5037296;28;20184;-81
2023/03/08 05:42:13;;;;;;;4.53;3.00;;;1.80;99.90;;;;;;5055315;28;20324;-83
2023/03/08 05:44:38;;;;;;;7.13;3.80;;;1.80;99.90;;;;;;5020223;28;20635;-81
2023/03/08 05:47:04;;;;;;;4.77;2.87;;;1.70;99.90;;;;;;5019195;28;20195;-82
2023/03/08 05:49:30;;;;;;;3.00;2.47;;;1.60;99.90;;;;;;5042761;28;20177;-81
2023/03/08 05:51:56;;;;;;;4.80;3.40;;;1.60;99.90;;;;;;5017087;28;20187;-84
2023/03/08 05:54:22;;;;;;;3.70;2.53;;;1.50;99.90;;;;;;5034530;28;20224;-82
2023/03/08 05:56:47;;;;;;;2.27;2.07;;;1.50;99.90;;;;;;5033787;28;20218;-83
2023/03/08 05:59:13;;;;;;;5.63;2.90;;;1.40;99.90;;;;;;5034025;28;20629;-82
2023/03/08 06:01:39;;;;;;;4.87;2.97;;;1.40;99.90;;;;;;5016234;28;20552;-83
2023/03/08 06:04:05;;;;;;;4.30;2.43;;;1.30;99.90;;;;;;5035748;28;20565;-81
2023/03/08 06:06:31;;;;;;;2.40;2.13;;;1.30;99.90;;;;;;5019529;28;20634;-81
2023/03/08 06:08:57;;;;;;;3.07;1.80;;;1.30;99.90;;;;;;5035879;28;20274;-81
2023/03/08 06:11:23;;;;;;;3.70;1.90;;;1.20;99.90;;;;;;5052578;28;20180;-80
2023/03/08 06:13:48;;;;;;;3.83;2.17;;;1.20;99.90;;;;;;5035857;28;20229;-81
2023/03/08 06:16:14;;;;;;;4.30;2.40;;;1.10;99.90;;;;;;5036013;28;20233;-82
2023/03/08 06:18:42;;;;;;;2.03;1.67;;;1.00;99.90;;;;;;5019738;28;20192;-80
2023/03/08 06:21:12;;;;;;;1.80;1.70;;;1.00;99.90;;;;;;5054034;28;20648;-80
2023/03/08 06:23:38;;;;;;;7.60;2.37;;;1.10;99.90;;;;;;5053631;28;20223;-82
2023/03/08 06:26:05;;;;;;;4.33;1.80;;;1.00;99.90;;;;;;5035374;28;20184;-82
2023/03/08 06:28:31;;;;;;;1.33;1.23;;;1.00;99.90;;;;;;5019104;28;20324;-81
2023/03/08 06:30:57;;;;;;;2.80;1.77;;;1.00;99.90;;;;;;5035678;28;20268;-81
2023/03/08 06:33:26;;;;;;;4.67;2.03;;;1.00;99.90;;;;;;5053499;28;20175;-80
2023/03/08 06:35:59;;;;;;;2.07;1.87;;;1.00;99.90;;;;;;5041727;28;20185;-80
2023/03/08 06:38:26;;;;;;;4.23;2.57;;;1.00;99.90;;;;;;5033672;28;20219;-80
2023/03/08 06:40:51;;;;;;;3.63;1.97;;;1.00;99.90;;;;;;5033074;28;20263;-80
2023/03/08 06:43:18;;;;;;;1.70;1.50;;;1.10;99.90;;;;;;5033016;28;20308;-80
2023/03/08 06:45:43;;;;;;;1.73;1.33;;;1.10;99.90;;;;;;5014948;28;20256;-80
2023/03/08 06:48:09;;;;;;;5.10;1.47;;;0.90;99.90;;;;;;5033163;28;20703;-80
2023/03/08 06:50:35;;;;;;;1.83;1.43;;;1.20;99.90;;;;;;5031359;28;20693;-81
2023/03/08 06:53:00;;;;;;;1.17;1.17;;;1.20;99.90;;;;;;5046482;28;20187;-80
2023/03/08 06:55:26;;;;;;;4.10;2.40;;;1.30;99.90;;;;;;5042035;28;20649;-81
2023/03/08 06:57:54;;;;;;;1.83;1.73;;;1.30;99.90;;;;;;5041944;28;20207;-81
2023/03/08 07:00:21;;;;;;;0.90;0.90;;;1.30;99.90;;;;;;5043427;28;20252;-81
2023/03/08 07:02:47;;;;;;;4.20;2.37;;;1.30;99.90;;;;;;5022974;28;20179;-80
2023/03/08 07:05:14;;;;;;;1.27;1.13;;;1.20;99.90;;;;;;5042921;28;20261;-81
2023/03/08 07:07:43;;;;;;;4.60;2.33;;;1.30;99.90;;;;;;5026171;28;20291;-79
2023/03/08 07:10:11;;;;;;;2.87;2.40;;;1.30;99.90;;;;;;5027194;28;20186;-80
2023/03/08 07:12:39;;;;;;;3.23;2.30;;;1.30;99.90;;;;;;5042422;28;20255;-79
2023/03/08 07:15:13;;;;;;;1.80;1.70;;;3.10;99.90;;;;;;5041358;28;20176;-81
2023/03/08 07:17:39;;;;;;;1.80;1.70;;;1.30;99.90;;;;;;5041603;28;20294;-81
2023/03/08 07:20:05;;;;;;;1.50;1.40;;;1.30;99.90;;;;;;5043227;28;20549;-81
2023/03/08 07:22:32;;;;;;;4.07;1.67;;;1.30;99.90;;;;;;5037472;28;20180;-80
2023/03/08 07:24:57;;;;;;;1.60;1.50;;;1.30;99.90;;;;;;5032574;28;20183;-80
2023/03/08 07:27:23;;;;;;;2.70;2.17;;;1.40;99.90;;;;;;5014885;28;20193;-81
2023/03/08 07:29:49;;;;;;;5.33;1.97;;;1.40;99.90;;;;;;5016236;28;20637;-80
2023/03/08 07:32:15;;;;;;;2.93;1.93;;;1.40;99.90;;;;;;5038526;28;20199;-83
2023/03/08 07:34:40;;;;;;;2.47;1.53;;;1.40;99.90;;;;;;5028984;28;20269;-82
2023/03/08 07:37:11;;;;;;;2.20;1.73;;;1.30;99.90;;;;;;5021700;28;20669;-82
2023/03/08 07:39:37;;;;;;;2.43;1.93;;;1.40;99.90;;;;;;5040654;28;20231;-82
2023/03/08 07:42:03;;;;;;;3.63;2.33;;;1.30;99.90;;;;;;5006691;28;20178;-82
2023/03/08 07:44:29;;;;;;;1.40;1.30;;;1.30;99.90;;;;;;5008380;28;20254;-80
2023/03/08 07:46:54;;;;;;;1.83;1.73;;;1.30;99.90;;;;;;5008112;28;20641;-81
2023/03/08 07:49:20;;;;;;;1.43;1.33;;;1.30;99.90;;;;;;5023027;28;20227;-81
2023/03/08 07:51:48;;;;;;;1.77;1.60;;;1.30;99.90;;;;;;5024468;28;20202;-80
2023/03/08 07:54:14;;;;;;;2.07;1.67;;;1.30;99.90;;;;;;5042251;28;20181;-81
2023/03/08 07:56:39;;;;;;;2.00;1.47;;;1.30;99.90;;;;;;5037569;28;20529;-81
2023/03/08 07:59:05;;;;;;;5.60;2.57;;;1.30;99.90;;;;;;5042512;28;20210;-81
2023/03/08 08:01:31;;;;;;;1.17;1.10;;;1.30;99.90;;;;;;5024356;28;20181;-80
2023/03/08 08:03:58;;;;;;;1.27;1.17;;;1.20;99.90;;;;;;5024780;28;20184;-81
2023/03/08 08:06:25;;;;;;;1.33;1.23;;;1.30;99.90;;;;;;5009879;28;20190;-81
2023/03/08 08:08:51;;;;;;;1.53;1.33;;;1.30;99.90;;;;;;5042167;28;20233;-81
2023/03/08 08:11:18;;;;;;;1.70;1.60;;;1.30;99.90;;;;;;5022556;28;20188;-81
2023/03/08 08:13:48;;;;;;;2.57;1.33;;;1.40;99.90;;;;;;5016999;28;20229;-81
2023/03/08 08:16:15;;;;;;;2.07;1.57;;;1.50;99.90;;;;;;5029845;28;20181;-80
2023/03/08 08:18:41;;;;;;;2.57;2.13;;;1.50;99.90;;;;;;5031989;28;20213;-80
2023/03/08 08:21:13;;;;;;;1.20;1.10;;;1.50;99.90;;;;;;5031968;28;20176;-81
2023/03/08 08:23:40;;;;;;;1.00;1.00;;;1.50;99.90;;;;;;5014590;28;20188;-81
2023/03/08 08:26:12;;;;;;;1.63;1.50;;;1.50;99.90;;;;;;5021354;28;20219;-81
2023/03/08 08:28:39;;;;;;;1.53;1.43;;;1.50;99.90;;;;;;5021752;28;20177;-81
2023/03/08 08:31:08;;;;;;;1.73;1.63;;;1.50;99.90;;;;;;5019272;28;20184;-82
2023/03/08 08:33:34;;;;;;;2.10;1.90;;;1.60;99.90;;;;;;5020921;28;20222;-81
2023/03/08 08:36:06;;;;;;;1.03;1.00;;;1.70;99.90;;;;;;5023725;28;20177;-80
2023/03/08 08:38:32;;;;;;;2.10;1.57;;;1.70;99.90;;;;;;5022773;28;20228;-81
2023/03/08 08:40:59;;;;;;;2.97;2.00;;;1.60;99.90;;;;;;5026309;28;20564;-81
2023/03/08 08:43:25;;;;;;;1.43;1.33;;;1.80;99.90;;;;;;5024894;28;20635;-81
2023/03/08 08:45:54;;;;;;;2.00;1.77;;;1.90;99.90;;;;;;5009934;28;20222;-82
2023/03/08 08:48:20;;;;;;;1.63;1.53;;;1.80;99.90;;;;;;5023955;28;20181;-81
2023/03/08 08:50:46;;;;;;;2.90;2.10;;;2.00;99.90;;;;;;5025261;28;20189;-81
2023/03/08 08:53:12;;;;;;;3.33;2.50;;;2.10;99.90;;;;;;5025419;28;20188;-81
2023/03/08 08:55:37;;;;;;;16.00;1.90;;;2.10;99.90;;;;;;5024711;28;20214;-81
2023/03/08 08:58:04;;;;;;;2.23;1.60;;;2.20;99.90;;;;;;5008114;28;20212;-80
2023/03/08 09:00:32;;;;;;;2.30;2.10;;;2.30;99.90;;;;;;5026307;28;20237;-81
2023/03/08 09:02:58;;;;;;;1.73;1.63;;;2.50;99.90;;;;;;5024560;28;20178;-82
2023/03/08 09:05:24;;;;;;;5.70;2.53;;;2.60;99.90;;;;;;5024325;28;20268;-81
2023/03/08 09:07:52;;;;;;;3.33;2.90;;;2.50;99.90;;;;;;5026383;28;20268;-81
2023/03/08 09:10:17;;;;;;;1.83;1.60;;;2.50;99.90;;;;;;5024714;28;20180;-81
2023/03/08 09:12:43;;;;;;;1.57;1.47;;;2.40;99.90;;;;;;5030711;28;20333;-81
2023/03/08 09:15:10;;;;;;;2.73;1.97;;;2.30;99.90;;;;;;5026722;28;20548;-81
2023/03/08 09:17:37;;;;;;;1.17;1.13;;;2.40;99.90;;;;;;5012711;28;20626;-80
2023/03/08 09:20:05;;;;;;;1.77;1.67;;;2.50;99.90;;;;;;5027520;28;20184;-80
2023/03/08 09:22:31;;;;;;;3.17;1.63;;;2.60;99.90;;;;;;5031995;28;20180;-84
2023/03/08 09:24:57;;;;;;;1.47;1.37;;;2.60;99.90;;;;;;5037746;28;20178;-80
2023/03/08 09:27:22;;;;;;;2.40;1.70;;;2.40;99.90;;;;;;5037781;28;20191;-80
2023/03/08 09:29:48;;;;;;;1.43;1.07;;;2.50;99.90;;;;;;5037504;28;20198;-81
2023/03/08 09:32:14;;;;;;;4.10;1.83;;;2.60;99.90;;;;;;5037586;28;20711;-81
2023/03/08 09:34:39;;;;;;;1.30;1.20;;;2.70;99.90;;;;;;5037439;28;20629;-81
2023/03/08 09:37:07;;;;;;;1.43;1.33;;;2.60;99.90;;;;;;5037915;28;20581;-81
2023/03/08 09:39:33;;;;;;;1.33;1.23;;;2.70;99.90;;;;;;5037217;28;20195;-83
2023/03/08 09:42:02;;;;;;;1.60;1.27;;;2.70;99.90;;;;;;5055463;28;20207;-80
2023/03/08 09:44:50;;;;;;;1.00;1.00;;;2.50;99.90;;;;;;5037379;28;20216;-81
2023/03/08 09:47:21;;;;;;;1.73;1.63;;;2.50;99.90;;;;;;5055411;28;20183;-80
2023/03/08 09:49:51;;;;;;;1.50;1.40;;;2.40;99.90;;;;;;5037302;28;20213;-80
2023/03/08 09:52:29;;;;;;;4.43;1.77;;;2.40;99.90;;;;;;5055245;28;20183;-80
2023/03/08 09:54:58;;;;;;;1.43;0.90;;;2.50;99.90;;;;;;5054964;28;20201;-80
2023/03/08 09:57:29;;;;;;;1.00;1.00;;;2.60;99.90;;;;;;5054834;28;20211;-80
2023/03/08 09:59:57;;;;;;;2.23;1.80;;;2.50;99.90;;;;;;5041311;28;20755;-81
2023/03/08 10:02:44;;;;;;;3.53;1.60;;;2.60;99.90;;;;;;5035274;28;20185;-80
2023/03/08 10:05:19;;;;;;;1.53;1.43;;;2.60;99.90;;;;;;5017150;28;20274;-81
2023/03/08 10:07:58;;;;;;;1.30;1.23;;;2.90;99.90;;;;;;5034606;28;20179;-81
2023/03/08 10:10:31;;;;;;;1.63;1.53;;;3.20;99.90;;;;;;5035077;28;20178;-81
2023/03/08 10:13:02;;;;;;;1.60;1.10;;;3.40;99.90;;;;;;5034054;28;20247;-81
2023/03/08 10:15:31;;;;;;;2.00;1.83;;;3.60;99.90;;;;;;5016295;28;20183;-81
2023/03/08 10:18:17;;;;;;;1.07;1.07;;;3.80;99.90;;;;;;5033724;28;20204;-81
2023/03/08 10:20:42;;;;;;;7.73;1.53;;;3.90;99.90;;;;;;5034051;28;20176;-81
2023/03/08 10:23:19;;;;;;;2.67;1.53;;;4.00;99.90;;;;;;5018638;28;20185;-81
2023/03/08 10:25:47;;;;;;;2.50;1.47;;;3.90;99.90;;;;;;5033791;28;20176;-81
2023/03/08 10:28:25;;;;;;;2.63;1.60;;;3.70;99.90;;;;;;5041604;28;20187;-81
2023/03/08 10:30:53;;;;;;;0.97;0.93;;;3.40;99.90;;;;;;5043536;28;20636;-81
2023/03/08 10:33:23;;;;;;;7.73;1.33;;;3.20;99.90;;;;;;5042289;28;20177;-81
2023/03/08 10:35:53;;;;;;;1.77;1.47;;;3.10;99.90;;;;;;5050292;28;20187;-81
2023/03/08 10:38:19;;;;;;;1.13;0.77;;;3.20;99.90;;;;;;5053547;28;20303;-81
2023/03/08 10:40:45;;;;;;;1.20;1.10;;;3.50;99.90;;;;;;5035559;28;20268;-81
2023/03/08 10:43:26;;;;;;;1.50;0.70;;;3.80;99.90;;;;;;5026432;28;20192;-82
2023/03/08 10:46:25;;;;;;;2.47;1.17;;;4.00;99.90;;;;;;5041113;28;20180;-81
2023/03/08 10:48:51;;;;;;;1.03;0.97;;;4.30;99.90;;;;;;5023741;28;20201;-81
2023/03/08 10:51:21;;;;;;;1.07;1.07;;;4.30;99.90;;;;;;5042032;28;20180;-81
2023/03/08 10:53:58;;;;;;;7.17;1.93;;;4.40;99.90;;;;;;5042173;28;20629;-82
2023/03/08 10:56:31;;;;;;;4.17;1.20;;;4.50;99.90;;;;;;5041468;28;20176;-82
2023/03/08 10:58:57;;;;;;;3.80;1.80;;;4.70;99.90;;;;;;5041775;28;20184;-82
2023/03/08 11:01:30;;;;;;;3.17;1.30;;;4.60;99.90;;;;;;5043443;28;20223;-83
2023/03/08 11:04:12;;;;;;;0.83;0.83;;;4.60;99.90;;;;;;5042256;28;20230;-81
2023/03/08 11:06:38;;;;;;;3.50;2.10;;;4.60;99.90;;;;;;5043882;28;20172;-81
2023/03/08 11:09:28;;;;;;;1.73;1.50;;;4.60;99.90;;;;;;5046855;28;20194;-82
2023/03/08 11:11:55;;;;;;;1.90;1.50;;;4.40;99.90;;;;;;5052627;28;20194;-82
2023/03/08 11:14:22;;;;;;;1.50;1.20;;;4.20;99.90;;;;;;5035137;28;20175;-82
2023/03/08 11:17:26;;;;;;;1.40;1.30;;;4.20;99.90;;;;;;5052327;28;20710;-82
2023/03/08 11:20:25;;;;;;;1.40;1.30;;;4.10;99.90;;;;;;5042775;28;20184;-82
2023/03/08 11:23:28;;;;;;;4.03;1.23;;;4.30;99.90;;;;;;5032452;28;20169;-82
2023/03/08 11:26:02;;;;;;;1.47;1.20;;;4.30;99.90;;;;;;5036548;28;20176;-82
2023/03/08 11:28:46;;;;;;;0.80;0.80;;;4.20;99.90;;;;;;5041702;28;20652;-82
2023/03/08 11:31:42;;;;;;;0.83;0.83;;;4.30;99.90;;;;;;5041269;28;20203;-82
2023/03/08 11:34:38;;;;;;;1.73;1.63;;;4.50;99.90;;;;;;5014680;28;20185;-82
2023/03/08 11:37:19;;;;;;;2.17;1.87;;;4.70;99.90;;;;;;5042257;28;20208;-82
2023/03/08 11:40:13;;;;;;;1.20;1.10;;;4.70;99.90;;;;;;5032566;28;20185;-82
2023/03/08 11:43:03;;;;;;;2.63;1.20;;;4.60;99.90;;;;;;5014800;28;20299;-82
2023/03/08 11:45:54;;;;;;;2.43;1.47;;;4.40;99.90;;;;;;5032487;28;20169;-82
2023/03/08 11:48:46;;;;;;;0.80;0.80;;;4.30;99.90;;;;;;5032771;28;20530;-81
2023/03/08 11:51:21;;;;;;;1.70;1.10;;;4.30;99.90;;;;;;5001523;28;20259;-81
2023/03/08 11:54:08;;;;;;;1.57;1.47;;;4.30;99.90;;;;;;5032100;28;20168;-82
2023/03/08 11:56:33;;;;;;;5.80;1.77;;;4.30;99.90;;;;;;5032139;28;20676;-81
2023/03/08 11:59:38;;;;;;;1.83;1.40;;;4.40;99.90;;;;;;5032319;28;20218;-81
2023/03/08 12:02:09;;;;;;;2.43;1.33;;;4.40;99.90;;;;;;5013244;28;20275;-80
2023/03/08 12:04:39;;;;;;;5.87;1.43;;;4.40;99.90;;;;;;5044071;28;20673;-81
2023/03/08 12:07:19;;;;;;;2.17;1.40;;;4.50;99.90;;;;;;5051800;28;20175;-82
2023/03/08 12:10:02;;;;;;;1.93;1.30;;;4.70;99.90;;;;;;5054754;28;20172;-81
2023/03/08 12:12:33;;;;;;;2.37;1.23;;;4.80;99.90;;;;;;5055744;28;20255;-81
2023/03/08 12:15:14;;;;;;;1.60;1.50;;;5.00;99.90;;;;;;5055732;28;20207;-81
2023/03/08 12:17:49;;;;;;;2.13;1.30;;;5.30;99.90;;;;;;5055939;28;20729;-81
2023/03/08 12:20:18;;;;;;;3.03;1.70;;;5.80;99.90;;;;;;5055811;28;20217;-82
2023/03/08 12:22:57;;;;;;;2.17;1.40;;;6.00;99.90;;;;;;5055886;28;20640;-81
2023/03/08 12:25:28;;;;;;;1.30;1.20;;;5.80;99.90;;;;;;5052222;28;20187;-82
2023/03/08 12:28:25;;;;;;;1.67;1.50;;;5.80;99.90;;;;;;5047541;28;20176;-81
2023/03/08 12:31:12;;;;;;;1.03;1.00;;;5.70;99.90;;;;;;5044729;28;20188;-81
2023/03/08 12:33:38;;;;;;;1.17;1.07;;;5.60;99.90;;;;;;5025994;28;20556;-81
2023/03/08 12:36:06;;;;;;;3.63;1.37;;;5.40;99.90;;;;;;5043390;28;20180;-80
2023/03/08 12:38:36;;;;;;;1.23;1.20;;;5.50;99.90;;;;;;5027475;28;20507;-81
2023/03/08 12:41:05;;;;;;;2.53;2.37;;;5.60;99.90;;;;;;5043398;28;20177;-80
2023/03/08 12:43:33;;;;;;;5.13;1.47;;;5.60;99.90;;;;;;5028360;28;20225;-80
2023/03/08 12:45:59;;;;;;;0.97;0.90;;;5.50;99.90;;;;;;5045051;28;20219;-81
2023/03/08 12:48:45;;;;;;;2.43;1.73;;;5.40;99.90;;;;;;5037469;28;20215;-80
2023/03/08 12:51:11;;;;;;;1.23;1.13;;;5.20;99.90;;;;;;5041578;28;20201;-80
2023/03/08 12:53:51;;;;;;;2.20;0.97;;;5.20;99.90;;;;;;5036711;28;20625;-81
2023/03/08 12:56:30;;;;;;;2.10;1.67;;;5.00;99.90;;;;;;5044306;28;20234;-80
2023/03/08 12:58:58;;;;;;;1.23;1.23;;;5.00;99.90;;;;;;5031933;28;20635;-80
2023/03/08 13:01:36;;;;;;;1.70;1.40;;;4.90;99.90;;;;;;5049306;28;20191;-79
2023/03/08 13:04:22;;;;;;;0.93;0.93;;;4.80;99.90;;;;;;5036538;28;20191;-82
2023/03/08 13:06:51;;;;;;;1.53;1.43;;;4.70;99.90;;;;;;5023270;28;20224;-79